Elizabeth City, North Carolina
Current Conditions -  °F | °C
As of 6:54 PM on Saturday 22 Nov 2014 (Local Time) from KECG Reporting Station
Clear Clear  
Wind Chill: 36°   Ceiling: Unl
Heat Index: 40°   Visibility: 10mi
Dew Point: 31°   Wind: 6mph
Humidity: 70%   Direction: 140°SE
Pressure: 30.39"   Gusts: NA
Location:  36.3°N, 76.22°W
Report Text: KECG 222354Z 14005KT 10SM CLR 04/M01 A3039 RMK AO2 SLP291 T00441006 10128 20039 58012
Loading
Personal Weather Stations






























Interactive Weather Map New forecast layout! Learn more

10-Day Weather Forecast

Advertisements
Track Severe Weather on mobile